Time;durP1;ratioP1;P1;durP2;ratioP2;P2;SDS_P1;SDS_P2;PMS_P1;PMS_P2;Temp;Humidity;BMP_temperature;BMP_pressure;BME280_temperature;BME280_humidity;BME280_pressure;Samples;Min_cycle;Max_cycle;Signal;HPM_P1;HPM_P2
2020/12/06 00:00:11;;;;;;;40.05;26.55;;;;;;;4.58;85.80;99096.43;1741232;80;21573;-69
2020/12/06 00:02:39;;;;;;;40.78;25.48;;;;;;;4.59;85.92;99096.36;1744656;81;20981;-69
2020/12/06 00:05:10;;;;;;;43.92;25.48;;;;;;;4.61;85.80;99094.58;1745539;81;21608;-68
2020/12/06 00:07:41;;;;;;;37.98;25.45;;;;;;;4.60;85.98;99099.81;1740123;81;21652;-68
2020/12/06 00:10:17;;;;;;;40.08;26.45;;;;;;;4.65;86.18;99109.11;1738859;81;21167;-68
2020/12/06 00:12:39;;;;;;;36.20;25.20;;;;;;;4.67;85.96;99107.30;1748107;81;21199;-68
2020/12/06 00:15:09;;;;;;;35.50;24.47;;;;;;;4.66;85.91;99103.03;1749219;80;21260;-69
2020/12/06 00:17:36;;;;;;;37.35;24.25;;;;;;;4.64;85.94;99100.94;1738802;81;21241;-69
2020/12/06 00:20:07;;;;;;;38.88;26.00;;;;;;;4.64;86.02;99103.52;1737468;81;21247;-68
2020/12/06 00:22:34;;;;;;;40.78;26.82;;;;;;;4.63;86.06;99107.47;1738351;81;21103;-69
2020/12/06 00:25:02;;;;;;;36.13;25.30;;;;;;;4.64;85.94;99102.23;1733576;81;21147;-69
2020/12/06 00:27:34;;;;;;;;;;;;;;;4.61;86.00;99104.92;1743159;81;21634;-68
2020/12/06 00:30:03;;;;;;;43.23;28.25;;;;;;;4.60;86.04;99105.83;1737461;80;20212;-69
2020/12/06 00:32:32;;;;;;;37.83;25.77;;;;;;;4.58;86.02;99108.91;1741651;81;21208;-68
2020/12/06 00:35:00;;;;;;;41.10;26.37;;;;;;;4.57;86.05;99096.88;1744532;80;21139;-67
2020/12/06 00:37:27;;;;;;;39.75;26.10;;;;;;;4.55;86.17;99089.61;1759281;80;28233;-68
2020/12/06 00:39:55;;;;;;;37.35;25.70;;;;;;;4.53;86.06;99092.69;1759096;80;21100;-69
2020/12/06 00:42:22;;;;;;;35.68;25.40;;;;;;;4.51;86.02;99093.21;1764978;80;21192;-68
2020/12/06 00:44:49;;;;;;;42.80;26.75;;;;;;;4.48;86.12;99095.86;1739812;82;21005;-68
2020/12/06 00:47:16;;;;;;;37.17;26.87;;;;;;;4.47;86.14;99101.94;1736673;82;21199;-69
2020/12/06 00:49:43;;;;;;;36.60;26.25;;;;;;;4.45;86.11;99097.26;1732184;82;21199;-69
2020/12/06 00:52:12;;;;;;;39.63;27.52;;;;;;;4.43;86.04;99097.78;1726041;82;21214;-67
2020/12/06 00:54:42;;;;;;;35.08;25.35;;;;;;;4.40;86.16;99103.05;1738307;81;21147;-69
2020/12/06 00:57:09;;;;;;;40.38;28.90;;;;;;;4.39;86.40;99098.75;1738050;82;22153;-68
2020/12/06 00:59:36;;;;;;;34.90;25.95;;;;;;;4.41;86.46;99104.73;1724843;82;21822;-69
2020/12/06 01:02:05;;;;;;;39.58;27.25;;;;;;;4.41;86.36;99102.14;1740768;82;21599;-68
2020/12/06 01:04:33;;;;;;;39.65;27.93;;;;;;;4.38;86.22;99110.00;1734652;82;21048;-68
2020/12/06 01:07:01;;;;;;;46.02;27.32;;;;;;;4.33;86.20;99109.30;1720316;82;21009;-69
2020/12/06 01:09:28;;;;;;;36.58;24.65;;;;;;;4.29;86.28;99103.39;1739204;82;22236;-68
2020/12/06 01:11:58;;;;;;;;;;;;;;;4.28;86.49;99099.55;1727978;82;21624;-68
2020/12/06 01:14:25;;;;;;;40.15;27.85;;;;;;;4.25;86.59;99097.45;1729958;82;20155;-69
2020/12/06 01:16:52;;;;;;;;;;;;;;;4.25;86.65;99092.28;1729894;82;21144;-68
2020/12/06 01:19:20;;;;;;;46.08;28.50;;;;;;;4.28;86.88;99085.33;1729192;82;20242;-69
2020/12/06 01:21:52;;;;;;;40.80;28.30;;;;;;;4.26;86.74;99081.06;1733573;82;21250;-69
2020/12/06 01:24:21;;;;;;;42.25;27.75;;;;;;;4.22;86.61;99087.20;1725933;82;21172;-68
2020/12/06 01:26:49;;;;;;;45.55;28.73;;;;;;;4.19;86.61;99086.02;1739244;80;21017;-69
2020/12/06 01:29:17;;;;;;;47.10;28.70;;;;;;;4.18;86.68;99090.80;1729352;80;21207;-69
2020/12/06 01:31:48;;;;;;;44.67;27.32;;;;;;;4.19;86.82;99097.64;1731588;80;21068;-68
2020/12/06 01:34:16;;;;;;;40.08;25.20;;;;;;;4.20;87.04;99096.77;1734670;82;22236;-69
2020/12/06 01:36:45;;;;;;;39.83;28.45;;;;;;;4.23;87.09;99099.26;1732942;82;21215;-69
2020/12/06 01:39:14;;;;;;;48.50;27.82;;;;;;;4.28;87.00;99104.72;1729180;82;21064;-69
2020/12/06 01:41:41;;;;;;;41.35;28.85;;;;;;;4.28;86.95;99100.84;1733103;82;21044;-68
2020/12/06 01:44:08;;;;;;;37.67;27.17;;;;;;;4.31;87.02;99098.16;1735835;80;21172;-67
2020/12/06 01:46:39;;;;;;;37.80;27.62;;;;;;;4.32;87.26;99097.28;1727332;80;21209;-68
2020/12/06 01:49:07;;;;;;;40.00;27.42;;;;;;;4.32;87.07;99089.53;1731194;82;21076;-68
2020/12/06 01:51:34;;;;;;;;;;;;;;;4.32;87.17;99098.57;1735748;82;21005;-68
2020/12/06 01:54:04;;;;;;;38.02;25.45;;;;;;;4.33;87.13;99101.54;1731561;82;20601;-68
2020/12/06 01:56:32;;;;;;;40.03;27.20;;;;;;;4.33;87.29;99095.08;1707656;80;21184;-67
2020/12/06 01:58:59;;;;;;;40.10;28.02;;;;;;;4.34;87.19;99095.47;1731115;82;21198;-67
2020/12/06 02:01:28;;;;;;;46.23;29.07;;;;;;;4.37;87.19;99100.53;1734547;80;21049;-69
2020/12/06 02:03:56;;;;;;;38.05;26.82;;;;;;;4.35;87.20;99100.60;1733237;82;21025;-68
2020/12/06 02:06:26;;;;;;;37.58;24.55;;;;;;;4.35;87.26;99090.72;1733349;82;21639;-69
2020/12/06 02:08:55;;;;;;;40.65;27.52;;;;;;;4.39;87.40;99098.75;1736357;82;21328;-69
2020/12/06 02:11:33;;;;;;;42.80;25.72;;;;;;;4.38;87.35;99101.80;1746933;80;21576;-69
2020/12/06 02:14:00;;;;;;;37.35;26.15;;;;;;;4.41;87.42;99098.27;1740092;82;21049;-68
2020/12/06 02:16:27;;;;;;;40.12;25.95;;;;;;;4.40;87.31;99092.71;1736155;82;21191;-69
2020/12/06 02:18:54;;;;;;;43.52;26.05;;;;;;;4.37;87.45;99087.19;1727352;82;21249;-68
2020/12/06 02:21:23;;;;;;;40.20;26.33;;;;;;;4.39;87.46;99085.83;1732682;81;21277;-68
2020/12/06 02:23:54;;;;;;;45.25;28.12;;;;;;;4.40;87.71;99079.79;1735146;80;21655;-70
2020/12/06 02:26:21;;;;;;;39.30;25.97;;;;;;;4.39;87.65;99080.21;1732486;82;21049;-68
2020/12/06 02:28:49;;;;;;;38.42;26.77;;;;;;;4.42;87.76;99088.31;1729429;80;21005;-68
2020/12/06 02:31:17;;;;;;;43.17;27.37;;;;;;;4.44;87.65;99086.53;1736172;80;21025;-67
2020/12/06 02:33:45;;;;;;;41.85;27.85;;;;;;;4.41;87.73;99076.30;1738248;80;21199;-68
2020/12/06 02:36:13;;;;;;;40.08;27.00;;;;;;;4.41;87.80;99077.59;1729274;81;21192;-68
2020/12/06 02:38:41;;;;;;;42.35;28.15;;;;;;;4.39;87.74;99078.92;1730220;82;21060;-68
2020/12/06 02:41:08;;;;;;;40.88;27.32;;;;;;;4.38;87.60;99081.12;1731933;82;21619;-69
2020/12/06 02:43:35;;;;;;;37.85;27.77;;;;;;;4.36;87.84;99075.59;1739653;82;21562;-68
2020/12/06 02:46:02;;;;;;;40.75;27.27;;;;;;;4.37;87.80;99065.64;1730896;82;21221;-67
2020/12/06 02:48:30;;;;;;;40.63;25.40;;;;;;;4.34;87.70;99070.91;1735956;82;21629;-68
2020/12/06 02:50:57;;;;;;;36.98;25.90;;;;;;;4.33;87.92;99075.70;1729661;82;21148;-68
2020/12/06 02:53:25;;;;;;;40.85;27.60;;;;;;;4.32;87.91;99074.02;1725515;82;21159;-69
2020/12/06 02:55:52;;;;;;;42.03;27.82;;;;;;;4.30;87.84;99082.26;1733285;82;21171;-68
2020/12/06 02:58:19;;;;;;;43.05;27.98;;;;;;;4.30;87.86;99093.89;1733273;82;20965;-67
2020/12/06 03:00:46;;;;;;;40.38;28.75;;;;;;;4.30;87.94;99086.14;1730775;82;21194;-69
2020/12/06 03:03:15;;;;;;;43.73;29.92;;;;;;;4.28;87.84;99087.91;1740244;82;21009;-67
2020/12/06 03:05:42;;;;;;;43.00;29.35;;;;;;;4.28;87.86;99082.75;1737821;80;21574;-69
2020/12/06 03:08:10;;;;;;;41.50;29.65;;;;;;;4.26;87.75;99091.41;1738544;80;21041;-68
2020/12/06 03:10:40;;;;;;;41.98;28.65;;;;;;;4.28;87.91;99096.51;1759236;79;21060;-67
2020/12/06 03:13:07;;;;;;;47.85;30.12;;;;;;;4.28;88.00;99095.67;1735729;82;21207;-67
2020/12/06 03:15:34;;;;;;;44.13;31.93;;;;;;;4.31;88.20;99107.20;1741956;81;21040;-68
2020/12/06 03:18:01;;;;;;;46.00;30.32;;;;;;;4.36;88.13;99098.86;1728641;82;21060;-69
2020/12/06 03:20:28;;;;;;;47.67;31.90;;;;;;;4.39;88.23;99100.05;1728612;82;21637;-70
2020/12/06 03:22:59;;;;;;;46.13;31.50;;;;;;;4.40;88.09;99103.05;1727983;82;21571;-67
2020/12/06 03:25:28;;;;;;;43.28;31.70;;;;;;;4.43;88.09;99104.24;1721234;82;21350;-68
2020/12/06 03:27:57;;;;;;;43.70;32.80;;;;;;;4.46;88.12;99110.60;1732906;82;21185;-69
2020/12/06 03:30:24;;;;;;;46.70;32.63;;;;;;;4.48;88.00;99110.08;1735609;80;21680;-67
2020/12/06 03:32:51;;;;;;;47.80;33.53;;;;;;;4.47;88.11;99107.11;1732235;82;21025;-68
2020/12/06 03:35:20;;;;;;;44.23;31.82;;;;;;;4.52;88.05;99109.56;1722402;82;21609;-69
2020/12/06 03:37:47;;;;;;;43.87;30.62;;;;;;;4.53;88.14;99106.91;1730946;81;21084;-68
2020/12/06 03:40:14;;;;;;;42.98;31.65;;;;;;;4.53;88.05;99104.32;1745428;82;21799;-69
2020/12/06 03:42:41;;;;;;;44.42;31.90;;;;;;;4.54;88.07;99109.91;1747741;81;21051;-68
2020/12/06 03:45:08;;;;;;;46.30;33.50;;;;;;;4.55;87.92;99101.25;1763486;80;21139;-69
2020/12/06 03:47:35;;;;;;;47.30;32.90;;;;;;;4.54;88.06;99103.45;1753704;81;21620;-68
2020/12/06 03:50:02;;;;;;;39.88;29.18;;;;;;;4.56;88.19;99097.75;1738875;81;22133;-69
2020/12/06 03:52:29;;;;;;;33.83;24.02;;;;;;;4.56;88.00;99090.00;1735960;81;21020;-67
2020/12/06 03:54:56;;;;;;;49.60;33.70;;;;;;;4.55;88.31;99087.03;1742212;80;21673;-68
2020/12/06 03:57:23;;;;;;;41.02;30.60;;;;;;;4.57;88.11;99103.34;1736423;81;21146;-68
2020/12/06 03:59:49;;;;;;;43.35;31.48;;;;;;;4.58;88.22;99092.09;1741045;80;21110;-68
2020/12/06 04:02:17;;;;;;;39.92;30.50;;;;;;;4.60;88.23;99100.66;1754000;81;21205;-67
2020/12/06 04:04:44;;;;;;;;;;;;;;;4.60;88.40;99104.53;1742372;80;21060;-69
2020/12/06 04:07:11;;;;;;;44.53;32.40;;;;;;;4.62;88.34;99103.17;1736936;81;20554;-69
2020/12/06 04:09:38;;;;;;;47.05;32.25;;;;;;;4.62;88.43;99105.34;1747158;81;21015;-68
2020/12/06 04:12:06;;;;;;;43.98;32.05;;;;;;;4.63;88.24;99112.19;1756494;81;21764;-67
2020/12/06 04:14:32;;;;;;;42.17;28.90;;;;;;;4.65;88.34;99107.82;1735144;81;22562;-69
2020/12/06 04:17:00;;;;;;;39.40;30.82;;;;;;;4.67;88.42;99125.40;1743870;81;21170;-68
2020/12/06 04:19:27;;;;;;;44.13;32.50;;;;;;;4.70;88.43;99119.28;1749128;81;21082;-69
2020/12/06 04:21:53;;;;;;;44.80;32.48;;;;;;;4.73;88.32;99120.93;1745852;81;21613;-68
2020/12/06 04:24:20;;;;;;;42.50;32.42;;;;;;;4.75;88.31;99116.56;1735733;80;21016;-69
2020/12/06 04:26:47;;;;;;;44.65;32.75;;;;;;;4.75;88.24;99116.56;1760767;80;21106;-67
2020/12/06 04:29:14;;;;;;;44.13;32.38;;;;;;;4.77;88.28;99119.95;1754509;80;21179;-67
2020/12/06 04:31:41;;;;;;;44.30;33.65;;;;;;;4.79;88.29;99117.71;1741388;81;21013;-68
2020/12/06 04:34:08;;;;;;;41.65;30.40;;;;;;;4.81;88.25;99116.34;1750228;80;21021;-68
2020/12/06 04:36:35;;;;;;;41.68;31.52;;;;;;;4.80;88.22;99110.34;1743860;81;21198;-68
2020/12/06 04:39:02;;;;;;;42.27;30.90;;;;;;;4.81;88.17;99112.02;1745923;80;22010;-68
2020/12/06 04:41:29;;;;;;;42.93;31.45;;;;;;;4.82;88.20;99115.47;1721782;82;21006;-67
2020/12/06 04:43:57;;;;;;;45.73;31.50;;;;;;;4.84;88.26;99129.17;1726335;82;21660;-68
2020/12/06 04:46:27;;;;;;;42.00;31.17;;;;;;;4.86;88.20;99117.05;1724171;82;21199;-69
2020/12/06 04:49:05;;;;;;;37.50;28.55;;;;;;;4.87;88.29;99121.31;1701165;82;21590;-68
2020/12/06 04:51:44;;;;;;;38.73;30.97;;;;;;;4.89;88.49;99122.95;1732998;82;21269;-69
2020/12/06 04:54:12;;;;;;;40.38;30.95;;;;;;;4.92;88.31;99129.77;1729781;82;21072;-68
2020/12/06 04:56:39;;;;;;;41.85;31.90;;;;;;;4.93;88.34;99128.44;1728384;82;21065;-68
2020/12/06 04:59:07;;;;;;;41.80;31.02;;;;;;;4.94;88.26;99125.39;1734807;82;22348;-68
2020/12/06 05:01:36;;;;;;;;;;;;;;;4.94;88.33;99120.22;1739220;82;21183;-67
2020/12/06 05:04:15;;;;;;;42.43;31.85;;;;;;;4.94;88.43;99117.63;1735896;82;21208;-68
2020/12/06 05:06:44;;;;;;;46.05;32.85;;;;;;;4.96;88.48;99105.50;1736323;82;21104;-69
2020/12/06 05:09:16;;;;;;;35.60;26.55;;;;;;;4.97;88.43;99120.11;1735787;82;21156;-68
2020/12/06 05:11:44;;;;;;;40.28;30.62;;;;;;;4.97;88.50;99120.11;1727597;82;21219;-68
2020/12/06 05:14:11;;;;;;;42.58;31.60;;;;;;;4.97;88.43;99134.34;1723390;82;21162;-70
2020/12/06 05:16:40;;;;;;;42.50;32.05;;;;;;;4.99;88.42;99133.85;1728787;82;22158;-68
2020/12/06 05:19:12;;;;;;;44.67;33.75;;;;;;;4.99;88.51;99120.91;1725934;82;21196;-69
2020/12/06 05:21:44;;;;;;;46.18;32.60;;;;;;;5.00;88.41;99123.89;1739441;82;21191;-69
2020/12/06 05:24:11;;;;;;;42.00;30.15;;;;;;;5.00;88.34;99117.42;1736071;82;21159;-69
2020/12/06 05:26:38;;;;;;;43.48;33.25;;;;;;;5.02;88.43;99115.63;1727027;82;21064;-69
2020/12/06 05:29:05;;;;;;;43.13;33.80;;;;;;;5.02;88.43;99128.57;1727141;82;21649;-69
2020/12/06 05:31:32;;;;;;;44.45;32.95;;;;;;;5.02;88.37;99135.04;1724534;82;21084;-69
2020/12/06 05:33:59;;;;;;;41.15;33.10;;;;;;;5.01;88.42;99137.20;1736056;81;21930;-68
2020/12/06 05:36:26;;;;;;;40.95;32.95;;;;;;;5.02;88.44;99131.16;1725453;82;21159;-69
2020/12/06 05:38:53;;;;;;;44.00;30.97;;;;;;;5.03;88.39;99132.84;1732642;82;21095;-69
2020/12/06 05:41:20;;;;;;;42.10;33.25;;;;;;;5.03;88.46;99132.84;1734263;82;21673;-67
2020/12/06 05:43:47;;;;;;;41.60;31.82;;;;;;;5.03;88.46;99136.72;1730126;81;21642;-70
2020/12/06 05:46:16;;;;;;;46.15;33.20;;;;;;;5.03;88.44;99147.06;1738368;82;21193;-68
2020/12/06 05:48:46;;;;;;;40.65;32.55;;;;;;;5.03;88.40;99153.53;1735637;82;21097;-68
2020/12/06 05:51:16;;;;;;;44.90;32.38;;;;;;;5.04;88.37;99155.25;1731233;82;21151;-67
2020/12/06 05:53:43;;;;;;;37.90;32.13;;;;;;;5.03;88.34;99158.71;1731495;80;21785;-69
2020/12/06 05:56:20;;;;;;;47.90;32.88;;;;;;;5.04;88.42;99150.08;1732882;82;21570;-67
2020/12/06 05:58:50;;;;;;;41.18;33.28;;;;;;;5.06;88.39;99150.84;1738134;82;21139;-69
2020/12/06 06:01:19;;;;;;;42.67;31.77;;;;;;;5.06;88.45;99153.43;1730619;82;21589;-68
2020/12/06 06:03:51;;;;;;;40.52;32.78;;;;;;;5.07;88.44;99152.55;1734847;82;21593;-68
2020/12/06 06:06:28;;;;;;;42.60;32.65;;;;;;;5.07;88.42;99159.02;1741852;80;21529;-68
2020/12/06 06:09:00;;;;;;;42.45;33.63;;;;;;;5.05;88.38;99155.63;1744696;82;20977;-68
2020/12/06 06:11:29;;;;;;;44.80;32.00;;;;;;;5.07;88.36;99159.02;1737740;82;20992;-68
2020/12/06 06:14:02;;;;;;;42.85;31.27;;;;;;;5.07;88.44;99151.26;1736608;82;20993;-68
2020/12/06 06:16:32;;;;;;;42.70;33.08;;;;;;;5.06;88.49;99150.84;1732716;82;20989;-69
2020/12/06 06:19:03;;;;;;;42.30;32.20;;;;;;;5.06;88.52;99155.17;1732296;82;21275;-70
2020/12/06 06:21:39;;;;;;;48.20;34.10;;;;;;;5.05;88.51;99154.34;1729347;80;21040;-68
2020/12/06 06:24:17;;;;;;;42.60;34.33;;;;;;;5.06;88.54;99168.95;1735441;80;21044;-68
2020/12/06 06:26:48;;;;;;;43.75;34.40;;;;;;;5.07;88.52;99173.25;1728239;82;21237;-69
2020/12/06 06:29:17;;;;;;;49.08;33.98;;;;;;;5.07;88.55;99174.55;1736005;81;21175;-70
2020/12/06 06:31:53;;;;;;;42.98;33.28;;;;;;;5.09;88.52;99176.61;1733167;81;21261;-67
2020/12/06 06:34:26;;;;;;;40.28;31.90;;;;;;;5.10;88.54;99178.32;1734704;81;21088;-69
2020/12/06 06:36:53;;;;;;;36.48;27.82;;;;;;;5.12;88.55;99182.97;1717396;82;21151;-67
2020/12/06 06:39:23;;;;;;;43.40;32.20;;;;;;;5.14;88.64;99182.48;1737242;81;21214;-68
2020/12/06 06:42:01;;;;;;;49.90;32.70;;;;;;;5.14;88.52;99186.36;1733662;81;21160;-69
2020/12/06 06:44:29;;;;;;;43.00;32.65;;;;;;;5.15;88.53;99186.78;1710967;82;22225;-69
2020/12/06 06:47:05;;;;;;;44.23;32.90;;;;;;;5.16;88.55;99187.17;1745662;81;21666;-68
2020/12/06 06:49:50;;;;;;;43.40;32.98;;;;;;;5.18;88.55;99177.20;1737352;80;21041;-68
2020/12/06 06:52:18;;;;;;;39.80;31.33;;;;;;;5.19;88.56;99195.28;1726428;81;21069;-69
2020/12/06 06:54:49;;;;;;;40.50;31.17;;;;;;;5.21;88.56;99192.63;1730997;81;21163;-69
2020/12/06 06:57:19;;;;;;;40.63;31.62;;;;;;;5.21;88.57;99197.80;1732672;82;21246;-68
2020/12/06 06:59:49;;;;;;;40.90;31.77;;;;;;;5.22;88.55;99199.52;1735333;80;21159;-69
2020/12/06 07:02:41;;;;;;;44.05;31.82;;;;;;;5.22;88.53;99205.98;1731532;82;21017;-69
2020/12/06 07:05:16;;;;;;;43.68;31.90;;;;;;;5.23;88.53;99201.19;1736147;82;21001;-69
2020/12/06 07:07:51;;;;;;;41.68;29.30;;;;;;;5.23;88.47;99201.19;1733661;82;21167;-69
2020/12/06 07:10:22;;;;;;;37.40;29.20;;;;;;;5.25;88.54;99212.34;1730915;82;22197;-67
2020/12/06 07:12:58;;;;;;;40.00;31.10;;;;;;;5.25;88.52;99211.89;1731485;82;21115;-68
2020/12/06 07:15:28;;;;;;;41.63;29.20;;;;;;;5.25;88.52;99210.59;1735360;82;21521;-69
2020/12/06 07:17:56;;;;;;;39.92;30.35;;;;;;;5.26;88.54;99211.44;1730299;82;21680;-68
2020/12/06 07:20:25;;;;;;;44.33;33.50;;;;;;;5.28;88.54;99199.30;1730517;82;21613;-68
2020/12/06 07:22:53;;;;;;;43.35;31.27;;;;;;;5.29;88.54;99209.61;1734469;82;21210;-67
2020/12/06 07:25:26;;;;;;;42.85;33.35;;;;;;;5.30;88.51;99214.34;1738039;81;21160;-69
2020/12/06 07:27:53;;;;;;;48.92;31.68;;;;;;;5.30;88.48;99216.92;1736710;81;21855;-68
2020/12/06 07:30:20;;;;;;;36.25;27.27;;;;;;;5.30;88.45;99219.52;1728024;81;21159;-68
2020/12/06 07:32:48;;;;;;;39.90;31.20;;;;;;;5.31;88.51;99210.84;1735476;81;21138;-68
2020/12/06 07:35:16;;;;;;;40.90;31.23;;;;;;;5.33;88.52;99220.70;1736872;82;21204;-69
2020/12/06 07:37:45;;;;;;;39.18;28.75;;;;;;;5.32;88.47;99223.75;1735940;82;21583;-69
2020/12/06 07:40:16;;;;;;;40.92;27.25;;;;;;;5.32;88.46;99213.39;1733696;82;21215;-67
2020/12/06 07:42:45;;;;;;;38.78;30.82;;;;;;;5.33;88.53;99216.82;1727298;82;21664;-68
2020/12/06 07:45:12;;;;;;;40.55;32.30;;;;;;;5.34;88.48;99218.50;1729773;82;21155;-67
2020/12/06 07:47:40;;;;;;;40.75;29.48;;;;;;;5.34;88.46;99214.61;1738915;82;21192;-69
2020/12/06 07:50:07;;;;;;;36.48;26.70;;;;;;;5.36;88.46;99220.59;1741302;81;21582;-68
2020/12/06 07:52:37;;;;;;;41.50;30.95;;;;;;;5.36;88.44;99210.23;1728556;82;21176;-68
2020/12/06 07:55:07;;;;;;;41.37;29.77;;;;;;;5.36;88.41;99214.96;1737779;82;20965;-68
2020/12/06 07:57:52;;;;;;;38.85;25.45;;;;;;;5.36;88.41;99215.42;1733648;82;21191;-68
2020/12/06 08:00:29;;;;;;;37.38;26.33;;;;;;;5.36;88.44;99205.06;1736543;82;21264;-69
2020/12/06 08:03:00;;;;;;;36.98;27.98;;;;;;;5.36;88.44;99216.71;1730149;82;21577;-70
2020/12/06 08:05:30;;;;;;;39.58;28.20;;;;;;;5.35;88.44;99217.63;1734667;80;21560;-69
2020/12/06 08:08:04;;;;;;;38.78;30.77;;;;;;;5.37;88.46;99227.45;1734252;81;21558;-69
2020/12/06 08:10:31;;;;;;;29.80;21.45;;;;;;;5.37;88.44;99227.45;1729167;82;21211;-68
2020/12/06 08:12:59;;;;;;;40.75;31.00;;;;;;;5.39;88.42;99220.48;1730141;82;21199;-67
2020/12/06 08:15:27;;;;;;;;;;;;;;;5.40;88.42;99223.46;1736959;82;21732;-67
2020/12/06 08:17:55;;;;;;;41.15;30.82;;;;;;;5.41;88.37;99218.70;1729018;82;20290;-69
2020/12/06 08:20:25;;;;;;;38.80;29.25;;;;;;;5.43;88.42;99219.47;1735482;82;21633;-69
2020/12/06 08:22:59;;;;;;;35.13;26.45;;;;;;;5.44;88.36;99210.83;1733437;82;21155;-68
2020/12/06 08:25:32;;;;;;;41.98;31.05;;;;;;;5.45;88.37;99212.50;1729145;82;21547;-68
2020/12/06 08:28:02;;;;;;;39.53;30.72;;;;;;;5.46;88.34;99221.11;1732430;82;21293;-69
2020/12/06 08:30:30;;;;;;;38.85;29.07;;;;;;;5.46;88.31;99216.80;1736571;82;21080;-68
2020/12/06 08:33:06;;;;;;;40.52;31.77;;;;;;;5.48;88.33;99214.98;1740839;82;22880;-69
2020/12/06 08:35:48;;;;;;;41.15;30.72;;;;;;;5.49;88.31;99214.11;1731345;82;21179;-67
2020/12/06 08:38:26;;;;;;;42.08;31.00;;;;;;;5.57;88.27;99207.34;1802308;77;22636;-67
2020/12/06 08:41:08;;;;;;;36.90;28.90;;;;;;;5.53;88.23;99202.73;1778132;80;21017;-67
2020/12/06 08:43:55;;;;;;;38.45;29.23;;;;;;;5.54;88.23;99201.81;1773043;80;21195;-67
2020/12/06 08:46:24;;;;;;;32.30;25.02;;;;;;;5.55;88.23;99187.98;1773653;80;21155;-67
2020/12/06 08:48:55;;;;;;;25.72;19.45;;;;;;;5.56;88.14;99185.78;1748625;81;21048;-67
2020/12/06 08:51:30;;;;;;;36.40;26.15;;;;;;;5.57;88.12;99192.67;1721007;83;21029;-68
2020/12/06 08:54:11;;;;;;;39.18;26.45;;;;;;;5.61;88.13;99194.24;1833794;77;22792;-67
2020/12/06 08:56:44;;;;;;;35.60;29.87;;;;;;;5.58;88.12;99192.22;1810230;77;21044;-67
2020/12/06 08:59:14;;;;;;;43.13;33.15;;;;;;;5.57;88.07;99190.51;1804475;77;21621;-68
2020/12/06 09:01:58;;;;;;;36.83;29.05;;;;;;;5.57;88.11;99196.56;1804401;77;21156;-70
2020/12/06 09:04:27;;;;;;;35.70;27.13;;;;;;;5.57;88.04;99188.80;1800922;77;20998;-68
2020/12/06 09:06:57;;;;;;;33.48;24.80;;;;;;;5.58;88.08;99187.88;1803507;77;21277;-66
2020/12/06 09:09:23;;;;;;;40.35;29.12;;;;;;;5.57;88.04;99188.80;1806239;77;20950;-68
2020/12/06 09:11:55;;;;;;;38.38;29.00;;;;;;;5.57;88.03;99182.31;1799798;77;21597;-68
2020/12/06 09:14:23;;;;;;;40.58;30.25;;;;;;;5.56;88.03;99185.78;1801089;77;21032;-67
2020/12/06 09:16:50;;;;;;;36.05;26.95;;;;;;;5.56;88.03;99184.48;1804160;77;21019;-67
2020/12/06 09:19:18;;;;;;;36.73;28.02;;;;;;;5.56;88.03;99183.20;1800831;77;21056;-69
2020/12/06 09:21:45;;;;;;;35.55;28.70;;;;;;;5.58;88.00;99180.11;1800411;77;21121;-69
2020/12/06 09:24:12;;;;;;;41.40;28.80;;;;;;;5.59;87.99;99181.79;1801694;77;21133;-67
2020/12/06 09:26:39;;;;;;;37.85;26.20;;;;;;;5.61;88.00;99172.23;1802915;77;21069;-67
2020/12/06 09:29:06;;;;;;;29.70;22.90;;;;;;;5.62;87.96;99167.89;1804007;77;21010;-68
2020/12/06 09:31:33;;;;;;;36.03;26.15;;;;;;;5.64;87.94;99167.84;1736917;80;21205;-67
2020/12/06 09:34:00;;;;;;;39.55;28.80;;;;;;;5.64;87.94;99157.48;1751649;80;21214;-67
2020/12/06 09:36:26;;;;;;;33.02;24.77;;;;;;;5.64;87.87;99158.33;1751516;80;22041;-67
2020/12/06 09:38:53;;;;;;;59.13;37.42;;;;;;;5.66;87.90;99158.25;1738097;80;21073;-68
2020/12/06 09:41:28;;;;;;;36.60;28.32;;;;;;;5.68;87.93;99152.12;1740711;80;21036;-66
2020/12/06 09:43:55;;;;;;;36.42;24.85;;;;;;;5.69;87.79;99150.40;1740130;80;21163;-68
2020/12/06 09:46:22;;;;;;;28.95;22.55;;;;;;;5.69;87.76;99149.11;1737182;80;21168;-68
2020/12/06 09:48:49;;;;;;;33.60;25.35;;;;;;;5.68;87.71;99139.63;1749694;80;22122;-66
2020/12/06 09:51:16;;;;;;;39.03;27.25;;;;;;;5.68;87.74;99148.69;1746722;80;21088;-68
2020/12/06 09:53:48;;;;;;;36.45;21.87;;;;;;;5.69;87.80;99148.65;1716326;80;21128;-69
2020/12/06 09:56:13;;;;;;;35.68;25.43;;;;;;;5.71;87.69;99136.92;1728817;81;21569;-69
2020/12/06 09:58:40;;;;;;;36.05;26.52;;;;;;;5.70;87.68;99149.48;1731081;81;22058;-69
2020/12/06 10:01:07;;;;;;;33.65;25.85;;;;;;;5.70;87.61;99155.51;1727690;81;21226;-69
2020/12/06 10:03:34;;;;;;;36.20;25.45;;;;;;;5.72;87.70;99145.95;1739233;80;21081;-66
2020/12/06 10:06:01;;;;;;;35.00;26.65;;;;;;;5.75;87.62;99150.17;1728377;81;21999;-67
2020/12/06 10:08:28;;;;;;;31.15;23.12;;;;;;;5.75;87.65;99154.05;1726166;81;21056;-68
2020/12/06 10:10:55;;;;;;;31.35;24.77;;;;;;;5.76;87.53;99154.44;1726096;81;21586;-67
2020/12/06 10:13:22;;;;;;;34.80;25.75;;;;;;;5.76;87.51;99152.69;1701195;82;23489;-66
2020/12/06 10:15:50;;;;;;;33.13;23.32;;;;;;;5.77;87.48;99158.70;1731777;81;21190;-67
2020/12/06 10:18:17;;;;;;;34.60;25.48;;;;;;;5.76;87.47;99150.09;1733017;81;21210;-69
2020/12/06 10:20:44;;;;;;;34.53;26.07;;;;;;;5.76;87.36;99142.78;1727009;81;21158;-68
2020/12/06 10:23:11;;;;;;;33.00;24.82;;;;;;;5.75;87.46;99156.64;1727198;81;21170;-69
2020/12/06 10:25:38;;;;;;;30.97;25.27;;;;;;;5.75;87.37;99150.17;1723544;81;21223;-67
2020/12/06 10:28:05;;;;;;;32.73;25.05;;;;;;;5.75;87.49;99157.94;1724681;81;21694;-68
2020/12/06 10:30:32;;;;;;;33.80;26.25;;;;;;;5.75;87.34;99146.28;1737776;80;21166;-69
2020/12/06 10:33:01;;;;;;;33.60;22.07;;;;;;;5.75;87.43;99145.83;1727309;81;21236;-67
2020/12/06 10:35:28;;;;;;;33.53;21.82;;;;;;;5.74;87.25;99139.39;1717626;81;21187;-67
2020/12/06 10:37:55;;;;;;;32.67;23.52;;;;;;;5.72;87.27;99142.52;1738275;80;21233;-68
2020/12/06 10:40:22;;;;;;;30.75;21.90;;;;;;;5.71;87.34;99132.58;1724386;80;21226;-68
2020/12/06 10:42:49;;;;;;;34.85;26.23;;;;;;;5.70;87.23;99139.13;1725862;81;21628;-68
2020/12/06 10:45:16;;;;;;;38.20;27.07;;;;;;;5.71;87.33;99156.34;1737619;80;21045;-66
2020/12/06 10:47:45;;;;;;;33.20;25.30;;;;;;;5.72;87.25;99152.88;1738775;80;21029;-66
2020/12/06 10:50:12;;;;;;;34.18;23.25;;;;;;;5.70;87.21;99139.13;1737575;80;21658;-66
2020/12/06 10:52:39;;;;;;;;;;;;;;;5.70;87.19;99149.48;1723246;80;21290;-66
2020/12/06 10:55:06;;;;;;;37.35;27.52;;;;;;;5.70;87.22;99144.31;1739963;81;20222;-69
2020/12/06 10:57:33;;;;;;;39.90;24.60;;;;;;;5.70;87.30;99141.72;1738867;81;21076;-67
2020/12/06 11:00:01;;;;;;;28.80;23.62;;;;;;;5.71;87.14;99133.03;1735502;80;21167;-64
2020/12/06 11:02:28;;;;;;;29.72;23.95;;;;;;;5.72;87.16;99134.75;1735804;80;22258;-65
2020/12/06 11:04:55;;;;;;;32.10;24.85;;;;;;;5.70;87.05;99143.02;1739656;80;21143;-68
2020/12/06 11:07:22;;;;;;;37.42;25.77;;;;;;;5.71;87.17;99139.51;1740251;81;21591;-66
2020/12/06 11:09:49;;;;;;;28.40;20.50;;;;;;;5.72;87.07;99134.75;1738876;81;21175;-71
2020/12/06 11:12:16;;;;;;;33.15;24.85;;;;;;;5.75;87.15;99142.40;1738681;81;21167;-67
2020/12/06 11:14:43;;;;;;;31.57;25.40;;;;;;;5.77;87.15;99135.39;1737813;81;22647;-68
2020/12/06 11:17:10;;;;;;;35.03;24.92;;;;;;;5.78;87.01;99137.10;1740281;81;21182;-69
2020/12/06 11:19:37;;;;;;;28.57;21.55;;;;;;;5.77;86.99;99131.08;1738641;81;21238;-68
2020/12/06 11:22:07;;;;;;;28.30;23.18;;;;;;;5.77;86.87;99112.08;1740006;81;21158;-66
2020/12/06 11:24:35;;;;;;;27.37;16.85;;;;;;;5.77;86.93;99112.95;1739528;81;21219;-65
2020/12/06 11:27:03;;;;;;;28.67;18.82;;;;;;;5.76;86.64;99093.56;1739280;81;22215;-68
2020/12/06 11:29:30;;;;;;;28.83;24.05;;;;;;;5.72;86.60;99112.73;1740887;81;21651;-66
2020/12/06 11:31:57;;;;;;;30.82;22.77;;;;;;;5.70;86.83;99123.59;1739523;80;20985;-68
2020/12/06 11:34:24;;;;;;;26.30;18.98;;;;;;;5.68;86.70;99111.13;1742105;81;21608;-66